Time;durP1;ratioP1;P1;durP2;ratioP2;P2;SDS_P1;SDS_P2;PMS_P1;PMS_P2;Temp;Humidity;BMP_temperature;BMP_pressure;BME280_temperature;BME280_humidity;BME280_pressure;Samples;Min_cycle;Max_cycle;Signal;HPM_P1;HPM_P2
2022/02/06 00:01:19;;;;;;;18.75;2.80;;;7.50;99.90;;;;;;5023986;28;20043;-67
2022/02/06 00:03:45;;;;;;;16.90;2.80;;;7.40;99.90;;;;;;5023371;28;20109;-67
2022/02/06 00:06:11;;;;;;;21.42;3.13;;;7.60;99.90;;;;;;5028124;28;20054;-68
2022/02/06 00:08:39;;;;;;;16.95;2.85;;;7.60;99.90;;;;;;5021546;28;20413;-67
2022/02/06 00:11:05;;;;;;;19.35;2.83;;;7.50;99.90;;;;;;5021133;28;20117;-67
2022/02/06 00:13:31;;;;;;;15.95;2.97;;;7.50;99.90;;;;;;5022696;28;20038;-68
2022/02/06 00:15:56;;;;;;;19.70;3.35;;;7.50;99.90;;;;;;5023514;28;20091;-68
2022/02/06 00:18:22;;;;;;;17.80;3.00;;;7.50;99.90;;;;;;5022586;28;20033;-68
2022/02/06 00:20:55;;;;;;;16.88;2.72;;;7.50;99.90;;;;;;5016548;28;20056;-67
2022/02/06 00:23:23;;;;;;;19.90;3.47;;;7.60;99.90;;;;;;5024058;28;20296;-67
2022/02/06 00:26:05;;;;;;;20.60;3.70;;;7.60;99.90;;;;;;5020176;28;20053;-67
2022/02/06 00:34:17;;;;;;;24.83;3.75;;;7.70;99.90;;;;;;5021198;28;20056;-67
2022/02/06 00:39:13;;;;;;;24.13;3.90;;;7.70;99.90;;;;;;5016646;28;20073;-67
2022/02/06 00:41:39;;;;;;;22.13;4.22;;;7.70;99.90;;;;;;5025745;28;20322;-67
2022/02/06 00:44:06;;;;;;;20.30;3.83;;;7.70;99.90;;;;;;5021452;28;20413;-67
2022/02/06 00:46:37;;;;;;;20.88;4.65;;;7.70;99.90;;;;;;5021474;28;20488;-67
2022/02/06 00:49:14;;;;;;;66.20;39.88;;;7.80;99.90;;;;;;5019717;28;20049;-67
2022/02/06 00:54:09;;;;;;;19.13;3.55;;;7.80;99.90;;;;;;5016120;28;20881;-67
2022/02/06 00:56:34;;;;;;;20.75;4.07;;;7.80;99.90;;;;;;5017517;28;20116;-67
2022/02/06 00:59:00;;;;;;;22.58;4.05;;;7.80;99.90;;;;;;5025939;28;20051;-67
2022/02/06 01:01:26;;;;;;;26.63;3.78;;;7.80;99.90;;;;;;5022629;28;20069;-67
2022/02/06 01:03:53;;;;;;;17.70;3.75;;;7.80;99.90;;;;;;5016884;28;20037;-67
2022/02/06 01:06:20;;;;;;;23.38;3.25;;;7.80;99.90;;;;;;5026303;28;20108;-67
2022/02/06 01:08:45;;;;;;;19.33;2.95;;;7.80;99.90;;;;;;5019454;28;20098;-67
2022/02/06 01:11:12;;;;;;;19.58;3.83;;;7.80;99.90;;;;;;5021406;28;20509;-67
2022/02/06 01:13:54;;;;;;;23.90;4.00;;;7.90;99.90;;;;;;5020987;28;20046;-67
2022/02/06 01:16:25;;;;;;;19.58;3.38;;;7.80;99.90;;;;;;5014368;28;20478;-67
2022/02/06 01:18:57;;;;;;;20.98;3.28;;;7.90;99.90;;;;;;5023431;28;20038;-68
2022/02/06 01:21:37;;;;;;;24.17;3.47;;;7.90;99.90;;;;;;5021975;28;20046;-68
2022/02/06 01:24:11;;;;;;;30.40;3.90;;;7.80;99.90;;;;;;5015787;28;20445;-67
2022/02/06 01:31:57;;;;;;;25.60;4.13;;;7.90;99.90;;;;;;5020784;28;20044;-67
2022/02/06 01:37:15;;;;;;;20.70;4.30;;;7.80;99.90;;;;;;5021277;28;20037;-67
2022/02/06 01:42:45;;;;;;;18.98;3.30;;;7.90;99.90;;;;;;5022349;28;20293;-67
2022/02/06 02:09:29;;;;;;;23.65;4.07;;;7.90;99.90;;;;;;5017138;28;20100;-67
2022/02/06 02:15:05;;;;;;;24.63;4.15;;;7.90;99.90;;;;;;5023944;28;20073;-67
2022/02/06 02:20:27;;;;;;;27.83;4.60;;;7.80;99.90;;;;;;5023061;28;20041;-67
2022/02/06 02:23:13;;;;;;;30.27;4.80;;;7.90;99.90;;;;;;5020828;28;20045;-67
2022/02/06 02:26:07;;;;;;;30.67;3.40;;;7.90;99.90;;;;;;5016116;28;20050;-67
2022/02/06 02:29:07;;;;;;;32.75;4.63;;;7.90;99.90;;;;;;5020495;28;20054;-67
2022/02/06 02:47:37;;;;;;;28.13;4.38;;;8.00;99.90;;;;;;5024201;28;20494;-67
2022/02/06 02:50:10;;;;;;;22.58;3.83;;;8.00;99.90;;;;;;5024788;28;20510;-67
2022/02/06 02:58:03;;;;;;;20.83;3.53;;;8.00;99.90;;;;;;5022196;28;20142;-67
2022/02/06 03:00:52;;;;;;;27.73;4.32;;;8.00;99.90;;;;;;5021009;28;20120;-67
2022/02/06 03:03:22;;;;;;;26.85;5.55;;;8.00;99.90;;;;;;5023562;28;20045;-67
2022/02/06 03:05:51;;;;;;;22.00;4.45;;;8.10;99.90;;;;;;5024913;28;20054;-67
2022/02/06 03:08:17;;;;;;;27.52;4.25;;;8.00;99.90;;;;;;5024001;28;20074;-67
2022/02/06 03:10:43;;;;;;;23.75;4.60;;;8.00;99.90;;;;;;5029069;28;20514;-67
2022/02/06 03:13:13;;;;;;;28.90;4.65;;;7.90;99.90;;;;;;5024918;28;20041;-67
2022/02/06 03:16:01;;;;;;;25.38;4.28;;;8.00;99.90;;;;;;5023393;28;20049;-67
2022/02/06 03:18:29;;;;;;;29.05;5.75;;;8.00;99.90;;;;;;5025039;28;20048;-67
2022/02/06 03:20:55;;;;;;;23.95;3.72;;;8.00;99.90;;;;;;5027319;28;20050;-67
2022/02/06 03:23:21;;;;;;;28.38;4.70;;;8.10;99.90;;;;;;5008631;28;20046;-67
2022/02/06 03:25:51;;;;;;;30.85;5.40;;;8.10;99.90;;;;;;5022669;28;20034;-67
2022/02/06 03:28:17;;;;;;;29.60;4.65;;;8.10;99.90;;;;;;5026722;28;20038;-67
2022/02/06 03:30:43;;;;;;;31.25;5.18;;;8.00;99.90;;;;;;5019820;28;20529;-67
2022/02/06 03:33:09;;;;;;;29.73;4.57;;;8.00;99.90;;;;;;5020015;28;20116;-67
2022/02/06 03:35:36;;;;;;;31.42;4.88;;;8.00;99.90;;;;;;5021282;28;20026;-67
2022/02/06 03:38:02;;;;;;;28.20;5.22;;;8.10;99.90;;;;;;5025112;28;20435;-67
2022/02/06 03:40:32;;;;;;;30.15;4.80;;;8.10;99.90;;;;;;5022043;28;20116;-67
2022/02/06 03:45:31;;;;;;;26.92;4.78;;;8.10;99.90;;;;;;5024076;28;20160;-68
2022/02/06 03:48:09;;;;;;;29.77;4.57;;;8.00;99.90;;;;;;5021281;28;20117;-67
2022/02/06 03:50:35;;;;;;;22.25;4.47;;;8.10;99.90;;;;;;5019296;28;20045;-67
2022/02/06 03:53:01;;;;;;;24.33;4.18;;;8.00;99.90;;;;;;5020856;28;20033;-68
2022/02/06 03:55:29;;;;;;;24.33;4.57;;;8.10;99.90;;;;;;5027411;28;20504;-67
2022/02/06 03:57:55;;;;;;;33.78;5.13;;;8.10;99.90;;;;;;5017789;28;20370;-67
2022/02/06 04:00:24;;;;;;;23.60;3.85;;;8.10;99.90;;;;;;5014917;28;20038;-67
2022/02/06 04:02:50;;;;;;;22.85;4.10;;;8.10;99.90;;;;;;5024659;28;20045;-67
2022/02/06 04:05:16;;;;;;;19.25;3.42;;;8.10;99.90;;;;;;5024063;28;20045;-67
2022/02/06 04:07:46;;;;;;;26.30;4.15;;;8.10;99.90;;;;;;5018436;28;20050;-66
2022/02/06 04:10:15;;;;;;;19.98;3.30;;;8.10;99.90;;;;;;5020398;28;20507;-67
2022/02/06 04:12:43;;;;;;;27.67;4.35;;;8.10;99.90;;;;;;5024235;28;20042;-67
2022/02/06 04:15:21;;;;;;;24.00;3.63;;;8.20;99.90;;;;;;5017428;28;20053;-67
2022/02/06 04:17:52;;;;;;;19.73;3.65;;;8.20;99.90;;;;;;5022127;28;20044;-67
2022/02/06 04:20:17;;;;;;;17.90;3.55;;;8.10;99.90;;;;;;5018792;28;20475;-67
2022/02/06 04:22:43;;;;;;;20.92;4.10;;;8.10;99.90;;;;;;5022853;28;20049;-67
2022/02/06 04:25:09;;;;;;;26.75;5.00;;;8.10;99.90;;;;;;5019078;28;20132;-68
2022/02/06 04:27:34;;;;;;;19.48;3.80;;;8.10;99.90;;;;;;5024501;28;20041;-67
2022/02/06 04:30:00;;;;;;;15.75;3.10;;;8.20;99.90;;;;;;5022626;28;20081;-67
2022/02/06 04:32:27;;;;;;;22.40;3.97;;;8.10;99.90;;;;;;5022397;28;20516;-67
2022/02/06 04:34:54;;;;;;;16.00;2.90;;;8.10;99.90;;;;;;5021999;28;20044;-67
2022/02/06 05:11:03;;;;;;;29.85;4.22;;;8.00;99.90;;;;;;5019195;28;20076;-67
2022/02/06 05:31:07;;;;;;;27.67;3.90;;;8.10;99.90;;;;;;5020984;28;20053;-66
2022/02/06 05:33:34;;;;;;;27.33;3.88;;;8.10;99.90;;;;;;5015990;28;20046;-66
2022/02/06 05:36:02;;;;;;;23.30;3.70;;;8.10;99.90;;;;;;5020734;28;20116;-67
2022/02/06 05:38:28;;;;;;;31.58;3.67;;;8.10;99.90;;;;;;5021352;28;20045;-67
2022/02/06 05:40:54;;;;;;;26.33;4.43;;;8.20;99.90;;;;;;5016408;28;20037;-67
2022/02/06 05:43:19;;;;;;;26.05;3.90;;;8.20;99.90;;;;;;5018637;28;20121;-67
2022/02/06 05:45:45;;;;;;;26.77;4.15;;;8.20;99.90;;;;;;5020046;28;20120;-66
2022/02/06 05:48:11;;;;;;;31.83;3.70;;;8.20;99.90;;;;;;5023519;28;20052;-67
2022/02/06 05:50:42;;;;;;;24.05;3.90;;;8.20;99.90;;;;;;5020913;28;20116;-67
2022/02/06 05:53:10;;;;;;;25.08;4.22;;;8.10;99.90;;;;;;5017374;28;20589;-67
2022/02/06 05:55:36;;;;;;;37.78;4.70;;;8.10;99.90;;;;;;5017378;28;20049;-67
2022/02/06 05:58:02;;;;;;;30.45;5.30;;;8.10;99.90;;;;;;5014661;28;20056;-67
2022/02/06 06:00:28;;;;;;;28.33;3.55;;;8.10;99.90;;;;;;5018489;28;20038;-67
2022/02/06 06:02:53;;;;;;;26.63;4.03;;;8.10;99.90;;;;;;5016325;28;20493;-67
2022/02/06 06:05:19;;;;;;;24.80;3.60;;;8.10;99.90;;;;;;5023017;28;20050;-67
2022/02/06 06:07:45;;;;;;;26.38;3.78;;;8.20;99.90;;;;;;5005164;28;20037;-67
2022/02/06 06:10:11;;;;;;;19.25;3.38;;;8.20;99.90;;;;;;5022445;28;20029;-67
2022/02/06 06:12:39;;;;;;;27.95;4.55;;;8.10;99.90;;;;;;5016759;28;20045;-67
2022/02/06 06:15:06;;;;;;;22.77;3.53;;;8.10;99.90;;;;;;5019030;28;20038;-67
2022/02/06 06:17:34;;;;;;;30.52;4.07;;;8.10;99.90;;;;;;5018539;28;20053;-67
2022/02/06 06:20:00;;;;;;;29.20;4.47;;;8.10;99.90;;;;;;5021665;28;20071;-67
2022/02/06 06:22:26;;;;;;;29.15;4.97;;;8.10;99.90;;;;;;5021694;28;20070;-67
2022/02/06 06:24:56;;;;;;;23.90;4.15;;;8.10;99.90;;;;;;5021181;28;20136;-67
2022/02/06 06:27:22;;;;;;;26.63;3.90;;;8.10;99.90;;;;;;5020001;28;20167;-67
2022/02/06 06:29:48;;;;;;;30.83;4.65;;;8.10;99.90;;;;;;5017185;28;20060;-67
2022/02/06 06:32:14;;;;;;;24.35;4.40;;;8.10;99.90;;;;;;5020762;28;20294;-67
2022/02/06 06:34:40;;;;;;;31.45;4.47;;;8.10;99.90;;;;;;5022361;28;20046;-67
2022/02/06 06:37:05;;;;;;;24.58;3.55;;;8.10;99.90;;;;;;5021810;28;20094;-67
2022/02/06 06:39:37;;;;;;;19.30;3.45;;;8.10;99.90;;;;;;5017057;28;20488;-67
2022/02/06 06:42:03;;;;;;;16.85;3.28;;;8.20;99.90;;;;;;5014507;28;20172;-67
2022/02/06 06:44:29;;;;;;;19.02;3.15;;;8.10;99.90;;;;;;5020901;28;20065;-67
2022/02/06 06:46:55;;;;;;;14.68;2.92;;;8.10;99.90;;;;;;5016985;28;20108;-67
2022/02/06 06:49:20;;;;;;;26.42;4.20;;;8.10;99.90;;;;;;5019123;28;20052;-67
2022/02/06 06:51:46;;;;;;;21.17;3.95;;;8.10;99.90;;;;;;5022998;28;20042;-67
2022/02/06 06:54:16;;;;;;;26.65;3.20;;;8.10;99.90;;;;;;5021568;28;20033;-67
2022/02/06 06:56:51;;;;;;;23.13;3.55;;;8.10;99.90;;;;;;5019373;28;20536;-67
2022/02/06 06:59:46;;;;;;;19.55;3.53;;;8.10;99.90;;;;;;5016518;28;20567;-67
2022/02/06 07:02:32;;;;;;;27.48;3.35;;;8.10;99.90;;;;;;5016488;28;20048;-67
2022/02/06 07:05:03;;;;;;;20.60;3.67;;;8.10;99.90;;;;;;5019199;28;20057;-67
2022/02/06 07:07:29;;;;;;;24.42;3.63;;;8.10;99.90;;;;;;5017763;28;20045;-67
2022/02/06 07:09:56;;;;;;;22.60;3.50;;;8.20;99.90;;;;;;5018190;28;20577;-67
2022/02/06 07:12:22;;;;;;;20.17;3.08;;;8.10;99.90;;;;;;5016847;28;20037;-66
2022/02/06 07:14:50;;;;;;;16.00;2.03;;;8.20;99.90;;;;;;5022549;28;20045;-67
2022/02/06 07:17:16;;;;;;;25.60;3.35;;;8.20;99.90;;;;;;5017788;28;20043;-67
2022/02/06 07:19:43;;;;;;;23.92;2.90;;;8.20;99.90;;;;;;5019251;28;20718;-67
2022/02/06 07:22:14;;;;;;;22.27;3.58;;;8.20;99.90;;;;;;5020724;28;20034;-67
2022/02/06 07:24:42;;;;;;;18.10;2.75;;;8.20;99.90;;;;;;5021834;28;20034;-67
2022/02/06 07:27:19;;;;;;;21.95;3.30;;;8.30;99.90;;;;;;5026435;28;20293;-66
2022/02/06 07:29:45;;;;;;;18.90;2.90;;;8.30;99.90;;;;;;5019300;28;20472;-67
2022/02/06 07:32:11;;;;;;;28.90;3.63;;;8.30;99.90;;;;;;5017748;28;20057;-66
2022/02/06 07:34:37;;;;;;;21.38;2.70;;;8.40;99.90;;;;;;5026678;28;20381;-67
2022/02/06 07:37:03;;;;;;;20.02;3.28;;;8.40;99.90;;;;;;5023763;28;20038;-66
2022/02/06 07:39:29;;;;;;;16.40;2.42;;;8.40;99.90;;;;;;5019004;28;20067;-67
2022/02/06 07:41:54;;;;;;;21.25;3.10;;;8.40;99.90;;;;;;5020405;28;20072;-66
2022/02/06 07:44:20;;;;;;;20.50;3.70;;;8.40;99.90;;;;;;5019931;28;20041;-66
2022/02/06 07:46:48;;;;;;;22.02;3.60;;;8.40;99.90;;;;;;5018946;28;20044;-66
2022/02/06 07:49:16;;;;;;;19.10;2.80;;;8.40;99.90;;;;;;5022080;28;20080;-66
2022/02/06 07:51:42;;;;;;;23.45;3.17;;;8.40;99.90;;;;;;5022935;28;20085;-66
2022/02/06 07:54:08;;;;;;;15.60;2.67;;;8.40;99.90;;;;;;5024082;28;20057;-66
2022/02/06 07:56:34;;;;;;;23.90;3.67;;;8.40;99.90;;;;;;5019288;28;20088;-66
2022/02/06 07:59:00;;;;;;;25.08;3.30;;;8.30;99.90;;;;;;5006731;28;20049;-67
2022/02/06 08:01:26;;;;;;;19.02;2.60;;;8.40;99.90;;;;;;5023513;28;20036;-66
2022/02/06 08:03:53;;;;;;;21.85;3.53;;;8.40;99.90;;;;;;5020779;28;20073;-66
2022/02/06 08:06:19;;;;;;;25.33;3.85;;;8.40;99.90;;;;;;5021223;28;20054;-67
2022/02/06 08:08:45;;;;;;;23.45;3.78;;;8.30;99.90;;;;;;5021297;28;20136;-67
2022/02/06 08:11:15;;;;;;;24.70;3.60;;;8.30;99.90;;;;;;5021731;28;20438;-67
2022/02/06 08:13:53;;;;;;;24.08;3.05;;;8.30;99.90;;;;;;5019773;28;20051;-67
2022/02/06 08:16:19;;;;;;;23.40;3.63;;;8.40;99.90;;;;;;5019390;28;20528;-67
2022/02/06 08:18:45;;;;;;;27.65;4.38;;;8.30;99.90;;;;;;5018374;28;20041;-66
2022/02/06 08:21:12;;;;;;;25.95;3.88;;;8.30;99.90;;;;;;5022158;28;20044;-67
2022/02/06 08:23:38;;;;;;;24.00;3.75;;;8.40;99.90;;;;;;5022607;28;20053;-67
2022/02/06 08:26:07;;;;;;;23.60;5.22;;;8.40;99.90;;;;;;5003783;28;20061;-67
2022/02/06 08:28:33;;;;;;;24.73;4.18;;;8.40;99.90;;;;;;5020543;28;20481;-66
2022/02/06 08:31:03;;;;;;;24.27;4.32;;;8.40;99.90;;;;;;5022535;28;20403;-67
2022/02/06 08:33:29;;;;;;;28.45;3.75;;;8.30;99.90;;;;;;5017067;28;20056;-67
2022/02/06 08:35:57;;;;;;;23.98;3.63;;;8.30;99.90;;;;;;5018137;28;20117;-67
2022/02/06 08:38:23;;;;;;;18.85;3.15;;;8.40;99.90;;;;;;5017817;28;20356;-67
2022/02/06 08:40:49;;;;;;;24.30;3.35;;;8.30;99.90;;;;;;5018698;28;20050;-67
2022/02/06 08:43:14;;;;;;;24.70;3.38;;;8.30;99.90;;;;;;5019897;28;20037;-67
2022/02/06 08:45:40;;;;;;;22.58;3.17;;;8.30;99.90;;;;;;5019046;28;20041;-67
2022/02/06 08:48:06;;;;;;;24.38;3.47;;;8.40;99.90;;;;;;5023327;28;20050;-67
2022/02/06 08:50:33;;;;;;;21.33;3.45;;;8.40;99.90;;;;;;5015388;28;20267;-67
2022/02/06 08:52:59;;;;;;;25.02;3.25;;;8.30;99.90;;;;;;5017334;28;20490;-67
2022/02/06 08:55:29;;;;;;;25.50;3.22;;;8.30;99.90;;;;;;5022580;28;20030;-67
2022/02/06 08:57:56;;;;;;;21.15;3.50;;;8.30;99.90;;;;;;5019704;28;20041;-67
2022/02/06 09:00:24;;;;;;;16.73;2.35;;;8.30;99.90;;;;;;5018211;28;20041;-67
2022/02/06 09:02:50;;;;;;;22.40;3.15;;;8.30;99.90;;;;;;5022024;28;20561;-67
2022/02/06 09:05:18;;;;;;;23.15;4.05;;;8.30;99.90;;;;;;5023234;28;20077;-66
2022/02/06 09:07:44;;;;;;;22.25;3.47;;;8.30;99.90;;;;;;5025744;28;20300;-66
2022/02/06 09:10:13;;;;;;;23.80;2.88;;;8.30;99.90;;;;;;5018569;28;20471;-66
2022/02/06 09:12:45;;;;;;;22.63;3.53;;;8.30;99.90;;;;;;5008511;28;20052;-66
2022/02/06 09:15:14;;;;;;;24.38;3.38;;;8.30;99.90;;;;;;5024257;28;20135;-67
2022/02/06 09:17:40;;;;;;;19.42;3.35;;;8.30;99.90;;;;;;5025511;28;20406;-67
2022/02/06 09:20:07;;;;;;;29.10;3.72;;;8.20;99.90;;;;;;5024238;28;20038;-67
2022/02/06 09:22:32;;;;;;;21.95;3.75;;;8.20;99.90;;;;;;5020144;28;20033;-67
2022/02/06 09:24:58;;;;;;;24.77;3.22;;;8.20;99.90;;;;;;5023623;28;20033;-67
2022/02/06 09:27:24;;;;;;;20.30;2.90;;;8.20;99.90;;;;;;5024145;28;20038;-67
2022/02/06 09:29:49;;;;;;;24.25;3.63;;;8.30;99.90;;;;;;5024789;28;20075;-67
2022/02/06 09:37:09;;;;;;;20.45;3.42;;;8.20;99.90;;;;;;5024383;28;20052;-67
2022/02/06 09:39:39;;;;;;;15.30;2.50;;;8.30;99.90;;;;;;5022534;28;20049;-67
2022/02/06 09:42:07;;;;;;;17.65;2.55;;;8.40;99.90;;;;;;5021461;28;20054;-67
2022/02/06 09:44:33;;;;;;;21.55;3.40;;;8.30;99.90;;;;;;5025395;28;20061;-67
2022/02/06 09:46:59;;;;;;;11.13;2.05;;;8.40;99.90;;;;;;5023299;28;20192;-67
2022/02/06 09:49:28;;;;;;;13.30;2.50;;;8.40;99.90;;;;;;5019358;28;20053;-67
2022/02/06 09:51:54;;;;;;;17.33;2.45;;;8.40;99.90;;;;;;5018335;28;20061;-67
2022/02/06 09:54:24;;;;;;;10.82;2.45;;;8.40;99.90;;;;;;5020628;28;20559;-67
2022/02/06 09:56:54;;;;;;;15.43;3.00;;;8.40;99.90;;;;;;5018345;28;20506;-67
2022/02/06 09:59:21;;;;;;;13.88;3.38;;;8.40;99.90;;;;;;5019719;28;20092;-67
2022/02/06 10:01:53;;;;;;;10.85;2.20;;;8.40;99.90;;;;;;5018136;28;20398;-67
2022/02/06 10:04:24;;;;;;;11.95;2.42;;;8.40;99.90;;;;;;5022360;28;20105;-67
2022/02/06 10:07:01;;;;;;;10.68;2.08;;;8.40;99.90;;;;;;5019177;28;20072;-67
2022/02/06 10:09:52;;;;;;;15.88;2.50;;;8.40;99.90;;;;;;5020018;28;20042;-67
2022/02/06 10:12:21;;;;;;;11.77;1.85;;;8.40;99.90;;;;;;5014821;28;20125;-67
2022/02/06 10:14:46;;;;;;;11.45;1.48;;;8.30;99.90;;;;;;5021735;28;20037;-67
2022/02/06 10:17:13;;;;;;;12.43;2.05;;;8.40;99.90;;;;;;5016683;28;20486;-67
2022/02/06 10:19:56;;;;;;;12.98;1.80;;;8.30;99.90;;;;;;5016727;28;20340;-67
2022/02/06 10:22:33;;;;;;;11.55;1.45;;;8.30;99.90;;;;;;5021029;28;20065;-67
2022/02/06 10:25:06;;;;;;;16.58;2.95;;;8.40;99.90;;;;;;5020036;28;20042;-67
2022/02/06 10:27:54;;;;;;;9.70;2.20;;;8.40;99.90;;;;;;5016980;28;20042;-66
2022/02/06 10:30:38;;;;;;;12.75;1.77;;;8.40;99.90;;;;;;5026551;28;20103;-67
2022/02/06 10:33:16;;;;;;;16.25;1.80;;;8.50;99.90;;;;;;5020570;28;20145;-66
2022/02/06 10:35:45;;;;;;;14.00;1.95;;;8.40;99.90;;;;;;5024613;28;20042;-67
2022/02/06 10:38:19;;;;;;;10.43;1.45;;;8.50;99.90;;;;;;5022567;28;20479;-67
2022/02/06 10:40:46;;;;;;;;;;;8.50;99.90;;;;;;5019266;28;20046;-67
2022/02/06 10:43:12;;;;;;;12.05;1.65;;;8.40;99.90;;;;;;5021201;28;19924;-67
2022/02/06 10:45:39;;;;;;;11.63;1.63;;;8.40;99.90;;;;;;5021852;28;20049;-67
2022/02/06 10:48:23;;;;;;;13.35;2.10;;;8.40;99.90;;;;;;5025200;28;20042;-67
2022/02/06 10:50:48;;;;;;;14.68;2.17;;;8.40;99.90;;;;;;5006532;28;20049;-67
2022/02/06 10:53:16;;;;;;;10.07;1.45;;;8.50;99.90;;;;;;5023763;28;20082;-66
2022/02/06 10:55:58;;;;;;;11.30;1.60;;;8.50;99.90;;;;;;5021424;28;20550;-67
2022/02/06 10:58:31;;;;;;;2.97;0.50;;;8.50;99.90;;;;;;5017015;28;20046;-67
2022/02/06 11:00:57;;;;;;;2.92;0.55;;;8.00;99.90;;;;;;5026351;28;20061;-68
2022/02/06 11:03:33;;;;;;;0.90;0.10;;;7.20;99.90;;;;;;5020169;28;20042;-68
2022/02/06 11:06:11;;;;;;;2.13;0.20;;;6.60;99.90;;;;;;5022346;28;20061;-67
2022/02/06 11:08:38;;;;;;;2.00;0.15;;;6.10;99.90;;;;;;5022180;28;20132;-68
2022/02/06 11:11:06;;;;;;;4.30;1.77;;;5.90;99.90;;;;;;5024959;28;20491;-67
2022/02/06 11:13:32;;;;;;;1.35;0.30;;;5.80;99.90;;;;;;5025884;28;20030;-67
2022/02/06 11:16:13;;;;;;;1.40;0.13;;;5.70;99.90;;;;;;5023054;28;20029;-67
2022/02/06 11:18:54;;;;;;;2.70;0.63;;;5.70;99.90;;;;;;5027926;28;20041;-67
2022/02/06 11:21:20;;;;;;;2.97;0.30;;;5.60;99.90;;;;;;5008431;28;20037;-67
2022/02/06 11:23:51;;;;;;;2.30;0.20;;;5.60;99.90;;;;;;5022872;28;20518;-67
2022/02/06 11:26:22;;;;;;;2.47;0.30;;;5.60;99.90;;;;;;5010795;28;20029;-67
2022/02/06 11:28:50;;;;;;;3.35;0.30;;;5.60;99.90;;;;;;5023898;28;20475;-67
2022/02/06 11:31:17;;;;;;;0.73;0.10;;;5.50;99.90;;;;;;5019431;28;20045;-67
2022/02/06 11:33:43;;;;;;;2.33;0.22;;;5.50;99.90;;;;;;5020767;28;20076;-67
2022/02/06 11:36:21;;;;;;;4.28;0.40;;;5.50;99.90;;;;;;5022656;28;20072;-67
2022/02/06 11:44:50;;;;;;;;;;;5.60;99.90;;;;;;5025905;28;20143;-67
2022/02/06 11:47:29;;;;;;;2.95;0.20;;;5.60;99.90;;;;;;5022870;28;19934;-67
2022/02/06 11:50:07;;;;;;;3.97;0.30;;;5.60;99.90;;;;;;5023664;28;20114;-67
2022/02/06 11:52:50;;;;;;;2.42;0.28;;;5.70;99.90;;;;;;5022346;28;20045;-67
2022/02/06 11:55:32;;;;;;;4.30;0.88;;;5.70;99.90;;;;;;5021708;28;20068;-67
2022/02/06 11:58:26;;;;;;;2.38;0.22;;;5.80;99.90;;;;;;5025556;28;20125;-67
2022/02/06 12:01:07;;;;;;;4.57;0.40;;;5.80;99.90;;;;;;5020436;28;20144;-67
2022/02/06 12:04:04;;;;;;;3.80;0.55;;;5.80;99.90;;;;;;5022908;28;20094;-67
2022/02/06 12:06:48;;;;;;;2.78;0.50;;;5.90;99.90;;;;;;5021877;28;20057;-67
2022/02/06 12:09:13;;;;;;;3.47;0.40;;;5.90;99.90;;;;;;5023344;28;20545;-67
2022/02/06 12:11:40;;;;;;;3.00;0.50;;;6.00;99.90;;;;;;5022937;28;20041;-67
2022/02/06 12:14:28;;;;;;;3.28;1.08;;;5.90;99.90;;;;;;5021997;28;20348;-67
2022/02/06 12:17:21;;;;;;;7.43;1.48;;;6.00;99.90;;;;;;5019750;28;20038;-67
2022/02/06 12:20:04;;;;;;;7.47;1.00;;;6.10;99.90;;;;;;5022042;28;20067;-67
2022/02/06 12:22:30;;;;;;;5.53;1.02;;;6.10;99.90;;;;;;5018434;28;20041;-67
2022/02/06 12:25:34;;;;;;;6.05;0.82;;;6.10;99.90;;;;;;5022000;28;20438;-67
2022/02/06 12:28:20;;;;;;;3.08;0.45;;;6.10;99.90;;;;;;5023341;28;20045;-67
2022/02/06 12:30:47;;;;;;;9.65;4.20;;;6.10;99.90;;;;;;5020261;28;20064;-67
2022/02/06 12:33:34;;;;;;;5.80;1.17;;;6.10;99.90;;;;;;5022424;28;20076;-67
2022/02/06 12:38:44;;;;;;;7.38;1.00;;;6.20;99.90;;;;;;5019747;28;20650;-67
2022/02/06 12:41:27;;;;;;;8.60;0.77;;;6.20;99.90;;;;;;5026276;28;20037;-67
2022/02/06 12:43:58;;;;;;;11.73;0.75;;;6.20;99.90;;;;;;5022468;28;20149;-67
2022/02/06 12:46:25;;;;;;;9.18;0.70;;;6.20;99.90;;;;;;5021069;28;20037;-67
2022/02/06 12:48:57;;;;;;;11.40;0.75;;;6.30;99.90;;;;;;5021900;28;20049;-67
2022/02/06 12:51:25;;;;;;;3.83;0.45;;;6.30;99.90;;;;;;5020405;28;20054;-67
2022/02/06 12:54:08;;;;;;;6.57;0.85;;;6.30;99.90;;;;;;5017133;28;20056;-67
2022/02/06 12:56:34;;;;;;;5.82;0.73;;;6.30;99.90;;;;;;5003684;28;20049;-67
2022/02/06 12:59:01;;;;;;;5.35;0.68;;;6.40;99.90;;;;;;5022227;28;20359;-67
2022/02/06 13:01:41;;;;;;;7.78;1.80;;;6.30;99.90;;;;;;5024161;28;20231;-67
2022/02/06 13:04:09;;;;;;;10.98;1.20;;;6.40;99.90;;;;;;5020763;28;20049;-67
2022/02/06 13:06:37;;;;;;;11.63;1.20;;;6.40;99.90;;;;;;5023200;28;20413;-66
2022/02/06 13:09:08;;;;;;;10.13;0.85;;;6.50;99.90;;;;;;5022891;28;20033;-66
2022/02/06 13:11:51;;;;;;;10.48;1.00;;;6.50;99.90;;;;;;5021675;28;20046;-66
2022/02/06 13:30:05;;;;;;;10.50;1.10;;;6.60;99.90;;;;;;5021608;28;20113;-66
2022/02/06 13:37:47;;;;;;;7.03;0.68;;;6.60;99.90;;;;;;5017895;28;20053;-66
2022/02/06 13:40:18;;;;;;;5.35;0.52;;;6.70;99.90;;;;;;5018944;28;20045;-66
2022/02/06 13:43:02;;;;;;;10.82;1.00;;;6.70;99.90;;;;;;5017268;28;20060;-66
2022/02/06 13:45:29;;;;;;;8.48;1.15;;;6.80;99.90;;;;;;5016240;28;20152;-66
2022/02/06 13:47:57;;;;;;;6.45;0.90;;;6.80;99.90;;;;;;5021305;28;20049;-66
2022/02/06 13:50:24;;;;;;;6.53;0.90;;;7.00;99.90;;;;;;5018007;28;20045;-66
2022/02/06 13:53:33;;;;;;;10.30;1.38;;;7.10;99.90;;;;;;5018710;28;20124;-66
2022/02/06 13:56:10;;;;;;;12.13;1.60;;;7.20;99.90;;;;;;4980969;28;20081;-65
2022/02/06 13:58:35;;;;;;;8.82;1.10;;;7.30;99.90;;;;;;4997821;28;20450;-65
2022/02/06 14:01:06;;;;;;;8.65;1.15;;;7.30;99.90;;;;;;5009866;28;20128;-65
2022/02/06 14:03:56;;;;;;;8.90;0.70;;;7.40;99.90;;;;;;5017418;28;20120;-65
2022/02/06 14:06:42;;;;;;;14.18;1.63;;;7.40;99.90;;;;;;5022062;28;20078;-66
2022/02/06 14:11:39;;;;;;;15.82;1.30;;;7.50;99.90;;;;;;5021006;28;20056;-66
2022/02/06 14:14:25;;;;;;;7.55;1.05;;;7.50;99.90;;;;;;5016313;28;20421;-65
2022/02/06 14:16:54;;;;;;;14.20;1.20;;;7.40;99.90;;;;;;5023553;28;20033;-65
2022/02/06 14:19:42;;;;;;;12.57;1.65;;;7.50;99.90;;;;;;5019753;28;20069;-66
2022/02/06 14:22:09;;;;;;;9.18;1.05;;;7.60;99.90;;;;;;5021394;28;20050;-66
2022/02/06 14:24:52;;;;;;;13.82;1.60;;;7.60;99.90;;;;;;5022799;28;20042;-66
2022/02/06 14:27:41;;;;;;;11.57;2.15;;;7.60;99.90;;;;;;5025649;28;20041;-66
2022/02/06 14:30:17;;;;;;;11.80;1.52;;;7.60;99.90;;;;;;5022437;28;20052;-66
2022/02/06 14:33:01;;;;;;;13.65;1.95;;;7.60;99.90;;;;;;5020657;28;20102;-66
2022/02/06 14:35:47;;;;;;;12.15;1.20;;;7.70;99.90;;;;;;5022294;28;20039;-66
2022/02/06 14:43:58;;;;;;;6.93;1.50;;;7.50;99.90;;;;;;5022563;28;19917;-66
2022/02/06 14:46:26;;;;;;;7.47;1.10;;;7.40;99.90;;;;;;5026039;28;20395;-66
2022/02/06 14:48:51;;;;;;;9.48;1.27;;;7.50;99.90;;;;;;5022822;28;20041;-66
2022/02/06 14:51:19;;;;;;;9.75;1.50;;;7.40;99.90;;;;;;5025306;28;20046;-66
2022/02/06 14:53:45;;;;;;;9.38;1.20;;;7.40;99.90;;;;;;5022479;28;20041;-66
2022/02/06 14:56:12;;;;;;;11.23;0.98;;;7.40;99.90;;;;;;5025433;28;20041;-65
2022/02/06 14:58:40;;;;;;;11.35;1.40;;;7.40;99.90;;;;;;5022883;28;20038;-66
2022/02/06 15:01:06;;;;;;;10.80;1.30;;;7.30;99.90;;;;;;5019851;28;20045;-66
2022/02/06 15:03:31;;;;;;;8.93;1.75;;;7.40;99.90;;;;;;5015276;28;21258;-66
2022/02/06 15:05:57;;;;;;;23.50;11.05;;;7.30;99.90;;;;;;5022461;28;20053;-66
2022/02/06 15:08:24;;;;;;;15.82;2.00;;;7.30;99.90;;;;;;5019461;28;20437;-66
2022/02/06 15:10:51;;;;;;;10.23;1.25;;;7.30;99.90;;;;;;5022001;28;20046;-65
2022/02/06 15:13:17;;;;;;;12.27;1.65;;;7.30;99.90;;;;;;5021036;28;20405;-66
2022/02/06 15:15:48;;;;;;;8.32;1.50;;;7.20;99.90;;;;;;5020180;28;20045;-66
2022/02/06 15:20:49;;;;;;;;;;;7.10;99.90;;;;;;5026685;28;20115;-66
2022/02/06 15:23:15;;;;;;;9.40;1.70;;;7.10;99.90;;;;;;5042785;28;20332;-66
2022/02/06 15:25:40;;;;;;;7.00;1.00;;;7.10;99.90;;;;;;5022828;28;20041;-66
2022/02/06 15:28:06;;;;;;;8.77;1.35;;;7.10;99.90;;;;;;5023467;28;20046;-66
2022/02/06 15:30:32;;;;;;;8.43;1.48;;;7.10;99.90;;;;;;5019763;28;20041;-67
2022/02/06 15:32:57;;;;;;;9.98;1.55;;;7.10;99.90;;;;;;5018558;28;20120;-66
2022/02/06 15:35:23;;;;;;;9.50;1.75;;;7.10;99.90;;;;;;5019014;28;20060;-66
2022/02/06 15:37:49;;;;;;;10.13;1.70;;;7.10;99.90;;;;;;5021818;28;20328;-66
2022/02/06 15:40:18;;;;;;;11.43;1.50;;;7.00;99.90;;;;;;5022481;28;20409;-66
2022/02/06 15:42:44;;;;;;;13.77;1.92;;;7.00;99.90;;;;;;5006673;28;20490;-66
2022/02/06 15:45:10;;;;;;;7.95;1.50;;;6.90;99.90;;;;;;5021014;28;20643;-66
2022/02/06 15:47:36;;;;;;;18.13;2.65;;;6.90;99.90;;;;;;5018485;28;20068;-66
2022/02/06 15:50:03;;;;;;;10.75;2.03;;;6.90;99.90;;;;;;5025360;28;20538;-66
2022/02/06 15:52:29;;;;;;;10.10;1.75;;;6.90;99.90;;;;;;5022702;28;20044;-67
2022/02/06 15:54:54;;;;;;;16.13;2.15;;;6.80;99.90;;;;;;5024865;28;20041;-67
2022/02/06 15:57:20;;;;;;;11.90;1.95;;;6.90;99.90;;;;;;5027020;28;20728;-67
2022/02/06 15:59:48;;;;;;;14.52;2.08;;;6.80;99.90;;;;;;5027232;28;20045;-67